createdAt,value
2023-03-19T00:00:43.446Z,2.60
2023-03-19T00:03:10.581Z,2.30
2023-03-19T00:05:37.606Z,2.80
2023-03-19T00:08:04.778Z,2.47
2023-03-19T00:10:31.515Z,2.80
2023-03-19T00:12:58.252Z,2.75
2023-03-19T00:15:24.959Z,2.40
2023-03-19T00:17:51.798Z,2.13
2023-03-19T00:20:19.916Z,2.40
2023-03-19T00:22:46.741Z,2.95
2023-03-19T00:25:13.816Z,2.63
2023-03-19T00:27:40.610Z,2.83
2023-03-19T00:30:09.115Z,2.80
2023-03-19T00:32:36.992Z,3.08
2023-03-19T00:35:06.603Z,3.00
2023-03-19T00:37:34.531Z,3.13
2023-03-19T00:40:01.878Z,2.78
2023-03-19T00:42:28.672Z,2.75
2023-03-19T00:44:55.925Z,2.92
2023-03-19T00:47:23.400Z,2.65
2023-03-19T00:49:50.175Z,3.35
2023-03-19T00:52:17.054Z,1.98
2023-03-19T00:54:43.897Z,2.47
2023-03-19T00:57:10.992Z,2.60
2023-03-19T00:59:37.692Z,1.73
2023-03-19T01:02:04.903Z,2.35
2023-03-19T01:04:31.896Z,2.33
2023-03-19T01:09:25.665Z,2.30
2023-03-19T01:11:52.682Z,3.30
2023-03-19T01:14:19.576Z,2.97
2023-03-19T01:16:46.355Z,2.95
2023-03-19T01:19:13.721Z,2.63
2023-03-19T01:21:40.517Z,2.75
2023-03-19T01:24:07.264Z,2.88
2023-03-19T01:26:33.962Z,3.13
2023-03-19T01:29:00.864Z,3.50
2023-03-19T01:31:27.715Z,3.33
2023-03-19T01:33:54.491Z,3.50
2023-03-19T01:36:21.335Z,3.22
2023-03-19T01:38:48.271Z,3.42
2023-03-19T01:41:15.400Z,3.60
2023-03-19T01:43:42.208Z,4.10
2023-03-19T01:46:22.062Z,3.63
2023-03-19T01:48:52.225Z,3.80
2023-03-19T01:51:25.599Z,3.53
2023-03-19T01:53:58.204Z,2.65
2023-03-19T01:56:34.326Z,3.45
2023-03-19T01:59:09.812Z,3.42
2023-03-19T02:01:55.954Z,3.45
2023-03-19T02:04:25.155Z,3.78
2023-03-19T02:06:51.976Z,3.90
2023-03-19T02:09:19.708Z,3.60
2023-03-19T02:11:46.696Z,4.03
2023-03-19T02:14:13.541Z,4.13
2023-03-19T02:16:40.291Z,5.97
2023-03-19T02:19:14.020Z,2.90
2023-03-19T02:21:40.882Z,3.20
2023-03-19T02:24:21.609Z,3.45
2023-03-19T02:26:48.998Z,3.55
2023-03-19T02:29:15.865Z,4.18
2023-03-19T02:31:42.624Z,4.40
2023-03-19T02:34:24.100Z,4.10
2023-03-19T02:36:59.189Z,4.00
2023-03-19T02:39:36.385Z,3.67
2023-03-19T02:42:04.777Z,3.63
2023-03-19T02:44:31.776Z,3.90
2023-03-19T02:46:59.654Z,5.05
2023-03-19T02:49:26.573Z,3.95
2023-03-19T02:51:53.350Z,3.75
2023-03-19T02:54:20.077Z,3.42
2023-03-19T02:56:47.771Z,3.28
2023-03-19T02:59:14.721Z,3.45
2023-03-19T03:01:41.806Z,3.95
2023-03-19T03:04:08.922Z,4.35
2023-03-19T03:06:35.699Z,4.68
2023-03-19T03:09:02.428Z,3.30
2023-03-19T03:11:29.279Z,3.53
2023-03-19T03:13:56.552Z,3.38
2023-03-19T03:16:23.455Z,3.22
2023-03-19T03:18:50.293Z,3.15
2023-03-19T03:21:20.165Z,3.03
2023-03-19T03:23:48.636Z,2.97
2023-03-19T03:26:15.689Z,3.10
2023-03-19T03:28:42.492Z,3.00
2023-03-19T03:31:09.775Z,3.22
2023-03-19T03:33:36.864Z,3.35
2023-03-19T03:36:04.057Z,3.60
2023-03-19T03:38:32.723Z,3.47
2023-03-19T03:40:59.442Z,3.20
2023-03-19T03:43:26.401Z,3.40
2023-03-19T03:45:54.632Z,3.97
2023-03-19T03:48:22.040Z,3.50
2023-03-19T03:50:48.827Z,3.28
2023-03-19T03:53:16.074Z,2.90
2023-03-19T03:55:43.140Z,2.80
2023-03-19T03:58:10.214Z,3.00
2023-03-19T04:00:37.125Z,3.13
2023-03-19T04:03:03.966Z,2.40
2023-03-19T04:05:31.085Z,2.75
2023-03-19T04:07:58.624Z,2.17
2023-03-19T04:10:25.386Z,2.40
2023-03-19T04:12:52.146Z,2.60
2023-03-19T04:15:19.132Z,2.75
2023-03-19T04:17:46.250Z,2.40
2023-03-19T04:20:14.489Z,3.42
2023-03-19T04:22:41.780Z,2.90
2023-03-19T04:25:11.577Z,2.72
2023-03-19T04:27:38.348Z,2.75
2023-03-19T04:30:06.034Z,3.08
2023-03-19T04:32:33.718Z,3.60
2023-03-19T04:35:00.805Z,3.83
2023-03-19T04:37:27.861Z,3.58
2023-03-19T04:39:54.635Z,2.53
2023-03-19T04:42:21.801Z,3.22
2023-03-19T04:44:48.713Z,3.65
2023-03-19T04:47:15.607Z,3.63
2023-03-19T04:49:42.548Z,5.03
2023-03-19T04:52:09.570Z,3.17
2023-03-19T04:54:36.380Z,4.97
2023-03-19T04:57:03.127Z,2.85
2023-03-19T04:59:30.025Z,3.80
2023-03-19T05:01:56.867Z,3.75
2023-03-19T05:04:24.151Z,3.28
2023-03-19T05:06:51.285Z,3.45
2023-03-19T05:09:18.081Z,3.78
2023-03-19T05:11:44.841Z,3.83
2023-03-19T05:14:11.624Z,2.92
2023-03-19T05:16:38.911Z,3.22
2023-03-19T05:19:05.650Z,3.28
2023-03-19T05:21:32.799Z,3.13
2023-03-19T05:23:59.784Z,2.90
2023-03-19T05:26:26.672Z,3.47
2023-03-19T05:28:53.461Z,3.78
2023-03-19T05:31:20.231Z,2.75
2023-03-19T05:33:47.044Z,2.83
2023-03-19T05:36:13.820Z,3.78
2023-03-19T05:38:40.863Z,2.97
2023-03-19T05:41:08.358Z,3.45
2023-03-19T05:43:35.106Z,3.58
2023-03-19T05:46:02.136Z,3.58
2023-03-19T05:48:28.950Z,2.70
2023-03-19T05:50:56.334Z,3.83
2023-03-19T05:53:23.257Z,4.28
2023-03-19T05:55:50.003Z,3.78
2023-03-19T05:58:17.084Z,3.50
2023-03-19T06:00:44.075Z,3.15
2023-03-19T06:03:11.192Z,4.07
2023-03-19T06:05:38.588Z,3.80
2023-03-19T06:08:05.771Z,5.78
2023-03-19T06:10:35.473Z,5.07
2023-03-19T06:13:02.367Z,5.20
2023-03-19T06:15:29.113Z,9.63
2023-03-19T06:17:56.020Z,6.60
2023-03-19T06:20:22.763Z,5.53
2023-03-19T06:22:49.524Z,5.07
2023-03-19T06:25:16.682Z,4.97
2023-03-19T06:27:43.446Z,3.33
2023-03-19T06:30:10.979Z,3.45
2023-03-19T06:32:38.428Z,3.92
2023-03-19T06:35:06.567Z,4.63
2023-03-19T06:37:33.716Z,4.18
2023-03-19T06:40:00.656Z,3.78
2023-03-19T06:42:27.874Z,3.72
2023-03-19T06:44:54.594Z,4.18
2023-03-19T06:47:21.348Z,4.45
2023-03-19T06:49:48.154Z,3.83
2023-03-19T06:52:14.929Z,2.83
2023-03-19T06:54:41.692Z,4.35
2023-03-19T06:57:08.543Z,5.70
2023-03-19T06:59:35.287Z,4.07
2023-03-19T07:02:02.380Z,3.03
2023-03-19T07:04:30.412Z,3.53
2023-03-19T07:06:57.206Z,3.70
2023-03-19T07:09:24.060Z,8.35
2023-03-19T07:11:51.019Z,3.67
2023-03-19T07:14:17.744Z,3.53
2023-03-19T07:16:44.579Z,5.28
2023-03-19T07:19:11.717Z,5.78
2023-03-19T07:21:38.436Z,4.03
2023-03-19T07:24:05.485Z,3.50
2023-03-19T07:26:32.649Z,3.13
2023-03-19T07:28:59.465Z,3.78
2023-03-19T07:31:27.496Z,6.82
2023-03-19T07:33:54.263Z,7.47
2023-03-19T07:36:21.970Z,8.10
2023-03-19T07:38:48.678Z,4.53
2023-03-19T07:41:15.443Z,3.65
2023-03-19T07:43:46.826Z,4.07
2023-03-19T07:46:14.040Z,3.03
2023-03-19T07:48:42.334Z,4.03
2023-03-19T07:51:09.195Z,3.45
2023-03-19T07:53:37.466Z,3.05
2023-03-19T07:56:04.559Z,3.25
2023-03-19T07:58:31.356Z,3.47
2023-03-19T08:00:58.112Z,3.25
2023-03-19T08:03:24.990Z,4.07
2023-03-19T08:05:52.618Z,3.40
2023-03-19T08:08:19.606Z,4.05
2023-03-19T08:10:48.239Z,3.05
2023-03-19T08:13:15.019Z,2.90
2023-03-19T08:15:41.898Z,3.47
2023-03-19T08:18:09.139Z,2.55
2023-03-19T08:20:36.292Z,3.08
2023-03-19T08:23:03.357Z,2.53
2023-03-19T08:25:32.631Z,2.40
2023-03-19T08:28:02.085Z,2.65
2023-03-19T08:30:29.106Z,3.00
2023-03-19T08:32:55.902Z,2.20
2023-03-19T08:35:23.315Z,3.25
2023-03-19T08:37:50.109Z,2.78
2023-03-19T08:40:17.068Z,2.38
2023-03-19T08:42:45.214Z,3.17
2023-03-19T08:45:14.699Z,3.42
2023-03-19T08:47:42.482Z,3.92
2023-03-19T08:50:10.694Z,5.10
2023-03-19T08:52:37.605Z,2.90
2023-03-19T08:55:05.627Z,3.13
2023-03-19T08:57:32.501Z,3.25
2023-03-19T08:59:59.265Z,2.47
2023-03-19T09:02:26.073Z,3.20
2023-03-19T09:04:53.022Z,4.03
2023-03-19T09:07:19.924Z,3.55
2023-03-19T09:09:46.682Z,3.45
2023-03-19T09:12:16.869Z,2.47
2023-03-19T09:14:44.035Z,2.13
2023-03-19T09:17:11.673Z,2.85
2023-03-19T09:19:38.508Z,3.20
2023-03-19T09:22:06.202Z,3.38
2023-03-19T09:24:32.957Z,4.10
2023-03-19T09:26:59.735Z,3.05
2023-03-19T09:29:26.543Z,2.47
2023-03-19T09:31:53.317Z,2.58
2023-03-19T09:34:20.077Z,2.97
2023-03-19T09:36:46.863Z,2.40
2023-03-19T09:39:13.641Z,2.90
2023-03-19T09:42:34.070Z,2.78
2023-03-19T09:45:00.800Z,2.72
2023-03-19T09:47:33.407Z,4.68
2023-03-19T09:50:32.409Z,2.65
2023-03-19T09:53:20.342Z,2.78
2023-03-19T09:55:51.771Z,2.30
2023-03-19T09:58:37.041Z,2.08
2023-03-19T10:01:04.311Z,2.25
2023-03-19T10:03:58.425Z,1.92
2023-03-19T10:06:35.730Z,2.75
2023-03-19T10:09:33.839Z,2.10
2023-03-19T10:12:25.152Z,2.80
2023-03-19T10:17:33.193Z,2.78
2023-03-19T10:20:16.932Z,1.88
2023-03-19T10:22:51.840Z,2.20
2023-03-19T10:25:27.690Z,2.20
2023-03-19T10:28:10.654Z,2.15
2023-03-19T10:30:37.883Z,2.70
2023-03-19T10:33:24.127Z,2.15
2023-03-19T10:36:04.873Z,2.33
2023-03-19T10:38:33.755Z,2.20
2023-03-19T10:41:38.607Z,2.90
2023-03-19T10:44:12.681Z,2.58
2023-03-19T10:46:40.598Z,2.10
2023-03-19T10:49:15.240Z,2.65
2023-03-19T10:51:46.572Z,2.63
2023-03-19T10:54:22.753Z,2.35
2023-03-19T10:56:50.908Z,2.72
2023-03-19T10:59:32.192Z,3.72
2023-03-19T11:02:19.439Z,2.72
2023-03-19T11:04:46.958Z,3.00
2023-03-19T11:07:19.871Z,2.72
2023-03-19T11:09:51.700Z,2.30
2023-03-19T11:12:27.698Z,3.13
2023-03-19T11:14:57.630Z,2.50
2023-03-19T11:17:36.264Z,2.97
2023-03-19T11:20:22.637Z,2.97
2023-03-19T11:22:52.605Z,2.83
2023-03-19T11:25:52.032Z,2.10
2023-03-19T11:28:26.263Z,2.47
2023-03-19T11:31:19.916Z,2.08
2023-03-19T11:33:55.370Z,2.63
2023-03-19T11:36:31.854Z,2.38
2023-03-19T11:39:40.116Z,2.75
2023-03-19T11:42:21.890Z,2.53
2023-03-19T11:45:42.227Z,2.15
2023-03-19T11:48:15.670Z,2.42
2023-03-19T11:50:59.035Z,2.13
2023-03-19T11:53:38.372Z,2.10
2023-03-19T11:56:44.164Z,2.28
2023-03-19T11:59:35.679Z,2.75
2023-03-19T12:02:57.343Z,2.63
2023-03-19T12:05:35.832Z,2.85
2023-03-19T12:08:19.838Z,2.40
2023-03-19T12:11:12.881Z,2.40
2023-03-19T12:14:45.873Z,2.50
2023-03-19T12:17:44.031Z,2.60
2023-03-19T12:20:35.198Z,2.40
2023-03-19T12:23:35.984Z,1.70
2023-03-19T12:26:10.378Z,1.60
2023-03-19T12:29:19.177Z,2.03
2023-03-19T12:32:18.184Z,2.30
2023-03-19T12:34:45.266Z,2.35
2023-03-19T12:37:18.053Z,2.22
2023-03-19T12:40:20.374Z,2.33
2023-03-19T12:42:47.224Z,2.40
2023-03-19T12:45:37.278Z,1.30
2023-03-19T12:49:01.106Z,1.63
2023-03-19T12:51:36.032Z,2.33
2023-03-19T12:54:19.215Z,2.13
2023-03-19T12:57:29.366Z,1.52
2023-03-19T13:00:22.876Z,2.67
2023-03-19T13:05:50.077Z,1.40
2023-03-19T13:08:56.812Z,1.35
2023-03-19T13:11:53.881Z,1.60
2023-03-19T13:14:43.384Z,1.15
2023-03-19T13:17:28.876Z,1.33
2023-03-19T13:19:57.058Z,1.58
2023-03-19T13:22:31.993Z,2.17
2023-03-19T13:25:00.639Z,2.28
2023-03-19T13:27:32.917Z,1.33
2023-03-19T13:30:11.387Z,1.88
2023-03-19T13:33:06.304Z,1.50
2023-03-19T13:35:44.358Z,1.48
2023-03-19T13:38:14.248Z,1.30
2023-03-19T13:40:54.496Z,1.52
2023-03-19T13:43:30.434Z,1.35
2023-03-19T13:46:37.736Z,1.42
2023-03-19T13:49:33.718Z,1.67
2023-03-19T13:52:25.828Z,1.23
2023-03-19T13:54:57.837Z,1.17
2023-03-19T13:57:36.107Z,1.67
2023-03-19T14:00:43.376Z,1.20
2023-03-19T14:03:29.096Z,1.48
2023-03-19T14:05:57.985Z,1.10
2023-03-19T14:08:33.590Z,1.30
2023-03-19T14:11:02.985Z,1.50
2023-03-19T14:13:38.454Z,1.83
2023-03-19T14:16:18.028Z,1.63
2023-03-19T14:18:45.186Z,1.30
2023-03-19T14:21:21.349Z,1.33
2023-03-19T14:23:56.021Z,1.80
2023-03-19T14:26:29.497Z,1.30
2023-03-19T14:29:03.701Z,1.40
2023-03-19T14:31:33.789Z,1.67
2023-03-19T14:34:11.657Z,1.35
2023-03-19T14:36:44.929Z,1.25
2023-03-19T14:39:31.585Z,1.50
2023-03-19T14:42:41.334Z,1.20
2023-03-19T14:49:43.329Z,1.50
2023-03-19T14:52:21.443Z,1.40
2023-03-19T14:55:02.043Z,1.13
2023-03-19T14:57:34.917Z,1.05
2023-03-19T15:00:07.129Z,0.75
2023-03-19T15:02:46.948Z,0.30
2023-03-19T15:05:33.328Z,0.30
2023-03-19T15:08:07.086Z,0.22
2023-03-19T15:10:50.710Z,0.52
2023-03-19T15:14:01.145Z,0.40
2023-03-19T15:17:38.760Z,0.30
2023-03-19T15:20:21.983Z,0.25
2023-03-19T15:23:13.414Z,0.73
2023-03-19T15:25:52.698Z,0.20
2023-03-19T15:28:20.081Z,0.45
2023-03-19T15:31:03.399Z,0.60
2023-03-19T15:33:42.718Z,0.63
2023-03-19T15:36:17.307Z,0.52
2023-03-19T15:38:49.511Z,0.20
2023-03-19T15:41:18.070Z,0.53
2023-03-19T15:43:45.853Z,0.52
2023-03-19T15:46:16.574Z,0.40
2023-03-19T15:48:54.324Z,0.38
2023-03-19T15:51:23.565Z,0.43
2023-03-19T15:53:50.807Z,0.47
2023-03-19T15:56:20.545Z,0.68
2023-03-19T15:58:53.073Z,0.60
2023-03-19T16:01:21.563Z,0.20
2023-03-19T16:04:09.018Z,0.40
2023-03-19T16:06:39.835Z,0.50
2023-03-19T16:09:32.985Z,0.30
2023-03-19T16:12:01.385Z,0.30
2023-03-19T16:14:42.340Z,0.20
2023-03-19T16:17:17.889Z,0.22
2023-03-19T16:19:50.511Z,0.10
2023-03-19T16:22:23.547Z,0.43
2023-03-19T16:27:22.290Z,0.20
2023-03-19T16:29:57.799Z,0.30
2023-03-19T16:32:27.769Z,0.30
2023-03-19T16:35:03.983Z,0.20
2023-03-19T16:37:48.913Z,0.20
2023-03-19T16:40:38.788Z,0.52
2023-03-19T16:43:18.741Z,0.40
2023-03-19T16:45:51.453Z,0.40
2023-03-19T16:48:18.842Z,0.30
2023-03-19T16:50:47.469Z,0.50
2023-03-19T16:53:27.460Z,0.40
2023-03-19T16:55:57.014Z,0.30
2023-03-19T16:58:29.591Z,0.40
2023-03-19T17:00:56.530Z,0.30
2023-03-19T17:03:23.798Z,0.70
2023-03-19T17:05:50.587Z,0.57
2023-03-19T17:09:26.594Z,0.40
2023-03-19T17:11:53.965Z,0.60
2023-03-19T17:14:22.054Z,0.80
2023-03-19T17:16:50.906Z,0.90
2023-03-19T17:19:23.941Z,0.75
2023-03-19T17:24:34.502Z,0.80
2023-03-19T17:27:04.108Z,0.80
2023-03-19T17:29:31.836Z,0.80
2023-03-19T17:32:02.028Z,0.80
2023-03-19T17:34:31.963Z,0.90
2023-03-19T17:37:01.591Z,2.35
2023-03-19T17:39:32.917Z,1.38
2023-03-19T17:42:00.048Z,1.08
2023-03-19T17:44:28.053Z,1.63
2023-03-19T17:46:56.166Z,1.17
2023-03-19T17:49:29.005Z,2.33
2023-03-19T17:51:56.823Z,1.90
2023-03-19T17:54:25.896Z,1.20
2023-03-19T17:56:53.827Z,1.20
2023-03-19T17:59:21.039Z,2.05
2023-03-19T18:01:47.857Z,0.82
2023-03-19T18:04:18.669Z,0.63
2023-03-19T18:06:57.425Z,0.70
2023-03-19T18:09:28.609Z,0.55
2023-03-19T18:11:55.828Z,0.75
2023-03-19T18:14:22.581Z,0.50
2023-03-19T18:16:49.456Z,0.50
2023-03-19T18:19:23.051Z,0.65
2023-03-19T18:21:49.863Z,1.00
2023-03-19T18:24:16.736Z,0.50
2023-03-19T18:26:43.502Z,1.30
2023-03-19T18:29:10.448Z,1.02
2023-03-19T18:31:37.308Z,0.68
2023-03-19T18:34:08.753Z,0.50
2023-03-19T18:36:36.106Z,0.73
2023-03-19T18:39:03.621Z,0.30
2023-03-19T18:41:30.529Z,1.00
2023-03-19T18:43:57.328Z,1.30
2023-03-19T18:46:29.274Z,0.70
2023-03-19T18:49:01.217Z,0.50
2023-03-19T18:51:28.773Z,0.77
2023-03-19T18:53:56.817Z,1.15
2023-03-19T18:56:33.128Z,0.60
2023-03-19T18:59:00.980Z,0.60
2023-03-19T19:01:28.408Z,0.90
2023-03-19T19:03:55.694Z,1.73
2023-03-19T19:06:44.275Z,1.52
2023-03-19T19:09:13.129Z,1.05
2023-03-19T19:11:42.052Z,1.20
2023-03-19T19:14:18.995Z,9.50
2023-03-19T19:16:45.938Z,6.60
2023-03-19T19:19:23.252Z,2.10
2023-03-19T19:21:53.183Z,0.73
2023-03-19T19:24:21.284Z,0.68
2023-03-19T19:26:53.443Z,2.03
2023-03-19T19:29:29.569Z,5.20
2023-03-19T19:31:56.658Z,2.08
2023-03-19T19:34:23.750Z,1.30
2023-03-19T19:36:51.334Z,1.20
2023-03-19T19:39:18.504Z,1.92
2023-03-19T19:41:46.761Z,4.32
2023-03-19T19:44:21.050Z,2.15
2023-03-19T19:46:48.047Z,0.93
2023-03-19T19:49:15.553Z,1.23
2023-03-19T19:51:42.791Z,1.10
2023-03-19T19:54:09.575Z,0.60
2023-03-19T19:56:37.476Z,0.75
2023-03-19T19:59:06.934Z,1.05
2023-03-19T20:01:35.381Z,2.80
2023-03-19T20:04:04.159Z,2.00
2023-03-19T20:06:31.052Z,1.08
2023-03-19T20:08:57.820Z,1.13
2023-03-19T20:11:26.151Z,1.45
2023-03-19T20:13:55.896Z,2.22
2023-03-19T20:16:26.636Z,2.53
2023-03-19T20:18:54.895Z,1.80
2023-03-19T20:21:23.165Z,1.88
2023-03-19T20:23:53.173Z,1.80
2023-03-19T20:26:23.341Z,1.20
2023-03-19T20:28:51.212Z,1.15
2023-03-19T20:31:33.093Z,1.52
2023-03-19T20:33:59.958Z,1.35
2023-03-19T20:36:26.877Z,1.55
2023-03-19T20:38:54.148Z,0.75
2023-03-19T20:41:24.786Z,1.35
2023-03-19T20:43:52.183Z,1.00
2023-03-19T20:46:21.301Z,0.80
2023-03-19T20:48:49.236Z,0.73
2023-03-19T20:51:25.334Z,1.00
2023-03-19T20:53:52.975Z,0.50
2023-03-19T20:56:22.565Z,0.90
2023-03-19T20:58:49.659Z,0.82
2023-03-19T21:01:18.021Z,0.60
2023-03-19T21:03:44.809Z,1.02
2023-03-19T21:06:24.175Z,0.80
2023-03-19T21:09:02.070Z,0.82
2023-03-19T21:11:42.154Z,0.60
2023-03-19T21:14:18.486Z,0.93
2023-03-19T21:16:45.246Z,1.30
2023-03-19T21:19:12.743Z,0.90
2023-03-19T21:21:39.731Z,0.85
2023-03-19T21:24:20.953Z,0.55
2023-03-19T21:26:47.812Z,0.70
2023-03-19T21:29:24.284Z,0.63
2023-03-19T21:31:56.749Z,0.98
2023-03-19T21:34:23.585Z,0.90
2023-03-19T21:36:50.956Z,1.40
2023-03-19T21:39:17.975Z,1.77
2023-03-19T21:41:46.553Z,1.17
2023-03-19T21:44:18.543Z,0.70
2023-03-19T21:46:47.924Z,1.50
2023-03-19T21:49:15.394Z,0.80
2023-03-19T21:51:44.701Z,0.60
2023-03-19T21:54:11.555Z,0.77
2023-03-19T21:56:44.140Z,0.40
2023-03-19T21:59:23.087Z,0.68
2023-03-19T22:01:49.910Z,0.60
2023-03-19T22:04:19.197Z,1.17
2023-03-19T22:06:46.904Z,0.82
2023-03-19T22:09:13.686Z,0.82
2023-03-19T22:11:42.637Z,0.90
2023-03-19T22:14:38.617Z,0.88
2023-03-19T22:17:05.986Z,1.08
2023-03-19T22:19:32.864Z,0.88
2023-03-19T22:21:59.673Z,0.80
2023-03-19T22:24:26.458Z,0.80
2023-03-19T22:26:57.879Z,0.70
2023-03-19T22:29:25.729Z,0.80
2023-03-19T22:31:54.563Z,0.60
2023-03-19T22:34:25.676Z,0.60
2023-03-19T22:36:52.765Z,0.60
2023-03-19T22:39:19.536Z,0.55
2023-03-19T22:41:48.431Z,0.80
2023-03-19T22:44:37.805Z,0.40
2023-03-19T22:47:04.810Z,0.75
2023-03-19T22:49:31.801Z,0.52
2023-03-19T22:51:58.947Z,0.60
2023-03-19T22:54:26.355Z,0.90
2023-03-19T22:56:53.139Z,0.52
2023-03-19T22:59:20.494Z,0.50
2023-03-19T23:01:48.385Z,0.50
2023-03-19T23:04:24.917Z,0.70
2023-03-19T23:06:54.187Z,1.00
2023-03-19T23:09:27.333Z,1.20
2023-03-19T23:11:54.295Z,0.60
2023-03-19T23:14:29.528Z,0.73
2023-03-19T23:17:02.106Z,0.75
2023-03-19T23:19:38.532Z,1.10
2023-03-19T23:22:07.640Z,0.80
2023-03-19T23:24:34.837Z,0.90
2023-03-19T23:27:02.850Z,1.00
2023-03-19T23:29:41.052Z,0.90
2023-03-19T23:32:11.524Z,0.70
2023-03-19T23:34:55.688Z,1.17
2023-03-19T23:37:24.732Z,0.90
2023-03-19T23:39:51.925Z,0.98
2023-03-19T23:42:28.179Z,1.00
2023-03-19T23:44:58.573Z,0.65
2023-03-19T23:47:25.530Z,0.70
2023-03-19T23:49:52.364Z,1.55
2023-03-19T23:52:19.116Z,1.00
2023-03-19T23:54:46.748Z,1.05
2023-03-19T23:57:16.030Z,1.58
2023-03-19T23:59:45.505Z,1.17
